Ital Oriente — A8LN2 — position and weather

sailwx.info

Track history (hours):
 
Tides and Currents Weather Stations Pressure Air Temp Water Temp Dewpoint Dewpoint Depression Visibility Wind Speed Wind Dir Waves Ship Positions

Ital Oriente

Last reported at 2014-Nov-26 05:30 UTC. Time now 2014-Nov-26 17:29 UTC.
Position N 40°57' E 028°41'.

Length 222 m; draft 10.4 m.

Type: Cargo ship. MMSI: 636091278.

Date/timePositionNaut miles runAvg speedWind from/ knotsBaromVisibWave heightAir tempDewpointWater temp
2014-Nov-26 05:30N 40°57' E 028°41'3 3.7
2014-Nov-26 04:33N 40°55' E 028°37'14912.3
2014-Nov-25 16:27N 39°44' E 025°46'12016.3
2014-Nov-25 09:07N 37°57' E 024°37'915.4
2014-Nov-25 08:33N 37°51' E 024°29'2115.8
2014-Nov-25 07:15N 37°38' E 024°09'1516.0
2014-Nov-25 06:19N 37°37' E 023°50'1317.6
2014-Nov-25 05:33N 37°46' E 023°38'1111.3
2014-Nov-25 04:33N 37°57' E 023°35'0 0.0
2014-Nov-25 03:31N 37°57' E 023°35'0 0.0
2014-Nov-25 02:31N 37°57' E 023°35'0 0.0
2014-Nov-25 01:31N 37°57' E 023°35'0 0.0
2014-Nov-25 00:31N 37°57' E 023°35'0 0.0
2014-Nov-24 23:31N 37°57' E 023°35'0 0.0
2014-Nov-24 22:31N 37°57' E 023°35'0 0.0
2014-Nov-24 21:31N 37°57' E 023°35'0 0.0
2014-Nov-24 20:31N 37°57' E 023°35'0 0.0
2014-Nov-24 19:31N 37°57' E 023°35'0 0.0
2014-Nov-24 18:31N 37°57' E 023°35'0 0.0
2014-Nov-24 17:31N 37°57' E 023°35'0 0.0
2014-Nov-24 16:31N 37°57' E 023°35'0 0.0
2014-Nov-24 15:31N 37°57' E 023°35'0 0.0
2014-Nov-24 14:31N 37°57' E 023°35'0 0.0
2014-Nov-24 13:31N 37°57' E 023°35'0 0.0
2014-Nov-24 12:31N 37°57' E 023°35'0 0.0
2014-Nov-24 11:31N 37°57' E 023°35'0 0.0
2014-Nov-24 10:31N 37°57' E 023°35'0 0.0
2014-Nov-24 09:31N 37°57' E 023°35'0 0.0
2014-Nov-24 08:31N 37°57' E 023°35'0 0.0
2014-Nov-24 07:31N 37°57' E 023°35'0 0.0
2014-Nov-24 06:31N 37°57' E 023°35'0 0.0
2014-Nov-24 05:31N 37°57' E 023°35'0 0.0
2014-Nov-24 04:31N 37°57' E 023°35'0 0.0
2014-Nov-24 03:31N 37°57' E 023°35'0 0.0
2014-Nov-24 02:31N 37°57' E 023°35'0 0.0
2014-Nov-24 01:31N 37°57' E 023°35'0 0.0
2014-Nov-24 00:31N 37°57' E 023°35'0 0.0
2014-Nov-23 23:31N 37°57' E 023°35'0 0.0
2014-Nov-23 22:31N 37°57' E 023°35'0 0.0
2014-Nov-23 21:33N 37°57' E 023°35'2 2.4
2014-Nov-23 20:33N 37°55' E 023°35'4 3.8
2014-Nov-23 19:33N 37°52' E 023°33'2 1.9
2014-Nov-23 18:31N 37°51' E 023°30'0 0.0
2014-Nov-23 17:31N 37°51' E 023°30'0 0.0
2014-Nov-23 16:31N 37°51' E 023°30'0 0.0
2014-Nov-23 15:31N 37°51' E 023°30'0 0.0
2014-Nov-23 14:31N 37°51' E 023°30'0 0.1
2014-Nov-23 13:31N 37°51' E 023°30'0 0.1
2014-Nov-23 12:31N 37°51' E 023°30'0 0.0
2014-Nov-23 11:31N 37°51' E 023°30'0 0.0
2014-Nov-23 10:33N 37°51' E 023°30'0 0.0
2014-Nov-23 09:33N 37°51' E 023°30'0 0.1
2014-Nov-23 08:33N 37°51' E 023°30'0 0.0
2014-Nov-23 07:33N 37°51' E 023°30'0 0.0
2014-Nov-23 06:33N 37°51' E 023°30'0 0.0
2014-Nov-23 05:33N 37°51' E 023°30'0 0.1
2014-Nov-23 04:33N 37°51' E 023°30'4 3.6
2014-Nov-23 03:33N 37°50' E 023°35'1111.0
2014-Nov-23 02:33N 37°42' E 023°44'1110.8
2014-Nov-23 01:33N 37°36' E 023°55'1110.8
2014-Nov-23 00:33N 37°37' E 024°09'4811.1
2014-Nov-22 20:14N 38°18' E 024°39'  
2014-Nov-19 05:33N 39°38' E 024°03'  
Track history (hours):
 
Tides and Currents Weather Stations Pressure Air Temp Water Temp Dewpoint Dewpoint Depression Visibility Wind Speed Wind Dir Waves Ship Positions

Ital Oriente

Last reported at 2014-Nov-26 05:30 UTC. Time now 2014-Nov-26 17:29 UTC.
Position N 40°57' E 028°41'.

Length 222 m; draft 10.4 m.

Type: Cargo ship. MMSI: 636091278.

Date/timePositionNaut miles runAvg speedWind from/ knotsBaromVisibWave heightAir tempDewpointWater temp
2014-Nov-26 05:30N 40°57' E 028°41'3 3.7
2014-Nov-26 04:33N 40°55' E 028°37'14912.3
2014-Nov-25 16:27N 39°44' E 025°46'12016.3
2014-Nov-25 09:07N 37°57' E 024°37'915.4
2014-Nov-25 08:33N 37°51' E 024°29'2115.8
2014-Nov-25 07:15N 37°38' E 024°09'1516.0
2014-Nov-25 06:19N 37°37' E 023°50'1317.6
2014-Nov-25 05:33N 37°46' E 023°38'1111.3
2014-Nov-25 04:33N 37°57' E 023°35'0 0.0
2014-Nov-25 03:31N 37°57' E 023°35'0 0.0
2014-Nov-25 02:31N 37°57' E 023°35'0 0.0
2014-Nov-25 01:31N 37°57' E 023°35'0 0.0
2014-Nov-25 00:31N 37°57' E 023°35'0 0.0
2014-Nov-24 23:31N 37°57' E 023°35'0 0.0
2014-Nov-24 22:31N 37°57' E 023°35'0 0.0
2014-Nov-24 21:31N 37°57' E 023°35'0 0.0
2014-Nov-24 20:31N 37°57' E 023°35'0 0.0
2014-Nov-24 19:31N 37°57' E 023°35'0 0.0
2014-Nov-24 18:31N 37°57' E 023°35'0 0.0
2014-Nov-24 17:31N 37°57' E 023°35'0 0.0
2014-Nov-24 16:31N 37°57' E 023°35'0 0.0
2014-Nov-24 15:31N 37°57' E 023°35'0 0.0
2014-Nov-24 14:31N 37°57' E 023°35'0 0.0
2014-Nov-24 13:31N 37°57' E 023°35'0 0.0
2014-Nov-24 12:31N 37°57' E 023°35'0 0.0
2014-Nov-24 11:31N 37°57' E 023°35'0 0.0
2014-Nov-24 10:31N 37°57' E 023°35'0 0.0
2014-Nov-24 09:31N 37°57' E 023°35'0 0.0
2014-Nov-24 08:31N 37°57' E 023°35'0 0.0
2014-Nov-24 07:31N 37°57' E 023°35'0 0.0
2014-Nov-24 06:31N 37°57' E 023°35'0 0.0
2014-Nov-24 05:31N 37°57' E 023°35'0 0.0
2014-Nov-24 04:31N 37°57' E 023°35'0 0.0
2014-Nov-24 03:31N 37°57' E 023°35'0 0.0
2014-Nov-24 02:31N 37°57' E 023°35'0 0.0
2014-Nov-24 01:31N 37°57' E 023°35'0 0.0
2014-Nov-24 00:31N 37°57' E 023°35'0 0.0
2014-Nov-23 23:31N 37°57' E 023°35'0 0.0
2014-Nov-23 22:31N 37°57' E 023°35'0 0.0
2014-Nov-23 21:33N 37°57' E 023°35'2 2.4
2014-Nov-23 20:33N 37°55' E 023°35'4 3.8
2014-Nov-23 19:33N 37°52' E 023°33'2 1.9
2014-Nov-23 18:31N 37°51' E 023°30'0 0.0
2014-Nov-23 17:31N 37°51' E 023°30'0 0.0
2014-Nov-23 16:31N 37°51' E 023°30'0 0.0
2014-Nov-23 15:31N 37°51' E 023°30'0 0.0
2014-Nov-23 14:31N 37°51' E 023°30'0 0.1
2014-Nov-23 13:31N 37°51' E 023°30'0 0.1
2014-Nov-23 12:31N 37°51' E 023°30'0 0.0
2014-Nov-23 11:31N 37°51' E 023°30'0 0.0
2014-Nov-23 10:33N 37°51' E 023°30'0 0.0
2014-Nov-23 09:33N 37°51' E 023°30'0 0.1
2014-Nov-23 08:33N 37°51' E 023°30'0 0.0
2014-Nov-23 07:33N 37°51' E 023°30'0 0.0
2014-Nov-23 06:33N 37°51' E 023°30'0 0.0
2014-Nov-23 05:33N 37°51' E 023°30'0 0.1
2014-Nov-23 04:33N 37°51' E 023°30'4 3.6
2014-Nov-23 03:33N 37°50' E 023°35'1111.0
2014-Nov-23 02:33N 37°42' E 023°44'1110.8
2014-Nov-23 01:33N 37°36' E 023°55'1110.8
2014-Nov-23 00:33N 37°37' E 024°09'4811.1
2014-Nov-22 20:14N 38°18' E 024°39'  
2014-Nov-19 05:33N 39°38' E 024°03'  

Dump ship's entire track history